KACY

Atlantic City International Airport

Atlantic City, New Jersey, USA
METAR KACY 191054Z 00000KT 10SM CLR M06/M08 A3020 RMK AO2 SLP228 T10611083
Observed Flight Rules
Dec-19 @ 10:54 UTC (44 minutes ago) Visual Flight Rules
Visibility Clouds
10 miles
  • Clear skies
Temperatures Readings
Current -6°C / 21°F
Dewpoint -8°C / 18°F
Humidity 86%
Altimeter 30.2" Hg
Pressure 1022.8 hPa
Elevation 23
METAR KACY 191054Z 00000KT 10SM CLR M06/M08 A3020 RMK AO2 SLP228 T10611083
Observed Flight Rules
Dec-19 @ 10:54 UTC
(44 minutes ago)
VFR
Clouds
  • Clear skies
Temperature Dewpoint
-6°C / 21°F -8°C / 18°F
Humidity Altimeter Pressure
86% 30.2" Hg 1022.8 hPa